Aviation Digital Data Service (ADDS)

Output produced by METARs form (1042 UTC 20 August 2014)
found at http://aviationweather.gov/adds/metars/
 
KALB 200545Z 2006/2106 00000KT P6SM SCT080 BKN250 
     FM200900 00000KT 6SM BR SCT020 BKN060 
     TEMPO 2010/2012 4SM BR BKN020 
     FM201800 16007KT P6SM SCT050 BKN120 
     FM210000 17006KT P6SM VCSH BKN040 OVC100